»·PEaware :: N618MP L52-L88

N618MP :: L52-L88

FLIGHT INFORMATION

Flight Status: Arrived
Operator: Privately registered:
United States
More flights under this callsign
Pilot: Anonymous 17616 (17616)
Aircraft: CESSNA 172 SKYHAWK
(C172)
More flights by this aircraft type
Origin: L52 Oceano Co
United States
Destination: L88 New Cuyama
United States
More flights between these airports :: More routes between these airports
Route:
File this flight plan on PilotEdge
Remarks:
Altitude:
(Current/Filed)
5,500ft
Speed:
(Current/Filed)
100kts
Departed: 09-Jan-18 05:55 PM
Arrived: 09-Jan-18 07:04 PM
Distance/Time
Traveled:
47nm/1:09
Distance/Time
To Go:
Arrived

Flight Plot

Page will automatically refresh every two minutes.


Map Options




Map Legend


Flown Route
Filed Route
Departure Airport
Arrival Airport
Navaid (VOR, NDB)
Fix

Horizontal Profiles

Position Reports

Time Latitude Longitude Heading Altitude Ground
Speed
09-Jan-18 17:51 35.101781 -120.624488 345 18ft 0kts
09-Jan-18 17:52 35.101781 -120.624488 345 18ft 0kts
09-Jan-18 17:53 35.101781 -120.624488 345 18ft 0kts
09-Jan-18 17:54 35.101781 -120.624488 345 18ft 0kts
09-Jan-18 17:55 35.101781 -120.624488 345 18ft 0kts
09-Jan-18 17:56 35.101781 -120.624488 345 18ft 0kts
09-Jan-18 17:57 35.101781 -120.624488 345 18ft 0kts
09-Jan-18 17:58 35.101781 -120.624488 345 18ft 0kts
09-Jan-18 17:59 35.101964 -120.624067 106 18ft 9kts
09-Jan-18 18:00 35.100499 -120.621267 122 18ft 20kts
09-Jan-18 18:01 35.100451 -120.620242 304 18ft 42kts
09-Jan-18 18:02 35.105738 -120.629123 286 448ft 68kts
09-Jan-18 18:03 35.099645 -120.627034 128 792ft 96kts
09-Jan-18 18:04 35.095108 -120.616614 82 1497ft 69kts
09-Jan-18 18:05 35.096727 -120.603445 81 2110ft 66kts
09-Jan-18 18:06 35.098328 -120.589781 64 2713ft 64kts
09-Jan-18 18:07 35.100826 -120.577014 89 3175ft 77kts
09-Jan-18 18:08 35.099851 -120.563809 61 3600ft 84kts
09-Jan-18 18:09 35.103612 -120.549667 83 4125ft 81kts
09-Jan-18 18:10 35.102528 -120.534085 92 4575ft 87kts
09-Jan-18 18:11 35.102234 -120.517219 85 4883ft 98kts
09-Jan-18 18:12 35.103963 -120.503899 80 5272ft 90kts
09-Jan-18 18:13 35.104696 -120.489603 93 5566ft 95kts
09-Jan-18 18:14 35.103352 -120.475989 92 5718ft 109kts
09-Jan-18 18:15 35.101763 -120.459822 96 5957ft 107kts
09-Jan-18 18:16 35.101385 -120.442919 88 5875ft 127kts
09-Jan-18 18:17 35.105325 -120.418194 75 5924ft 127kts
09-Jan-18 18:18 35.106102 -120.393751 95 5892ft 128kts
09-Jan-18 18:19 35.102803 -120.372895 88 5879ft 127kts
09-Jan-18 18:20 35.103042 -120.355115 89 5794ft 133kts
09-Jan-18 18:21 35.102479 -120.336731 94 5743ft 131kts
09-Jan-18 18:22 35.100818 -120.319364 98 5668ft 133kts
09-Jan-18 18:23 35.098155 -120.300392 101 5665ft 131kts
09-Jan-18 18:24 35.094829 -120.281194 104 5661ft 130kts
09-Jan-18 18:25 35.092550 -120.261102 94 5744ft 124kts
09-Jan-18 18:26 35.089561 -120.242686 112 5809ft 125kts
09-Jan-18 18:27 35.084854 -120.223992 103 5797ft 129kts
09-Jan-18 18:28 35.081779 -120.204200 101 5847ft 128kts
09-Jan-18 18:29 35.078898 -120.183721 100 5760ft 132kts
09-Jan-18 18:30 35.075539 -120.163564 106 5679ft 133kts
09-Jan-18 18:31 35.070391 -120.144664 102 5620ft 132kts
09-Jan-18 18:32 35.066333 -120.125671 106 5639ft 130kts
09-Jan-18 18:33 35.065626 -120.105703 84 5583ft 132kts
09-Jan-18 18:34 35.060879 -120.087018 105 5508ft 134kts
09-Jan-18 18:35 35.055439 -120.068215 115 5493ft 132kts
09-Jan-18 18:36 35.049543 -120.051293 109 5484ft 129kts
09-Jan-18 18:37 35.043520 -120.032424 108 5447ft 130kts
09-Jan-18 18:38 35.038348 -120.013884 119 5492ft 127kts
09-Jan-18 18:39 35.031801 -119.995680 110 5416ft 131kts
09-Jan-18 18:40 35.025613 -119.977288 114 5411ft 130kts
09-Jan-18 18:41 35.018796 -119.959173 115 5411ft 127kts
09-Jan-18 18:42 35.012516 -119.940389 122 5231ft 137kts
09-Jan-18 18:43 35.006103 -119.920645 108 5157ft 135kts
09-Jan-18 18:44 35.000302 -119.900620 107 4954ft 140kts
09-Jan-18 18:45 34.995813 -119.886801 113 4916ft 135kts
09-Jan-18 18:46 34.992250 -119.875931 109 4816ft 139kts
09-Jan-18 18:47 34.988890 -119.864752 113 4659ft 143kts
09-Jan-18 18:48 34.984957 -119.853274 111 4265ft 156kts
09-Jan-18 18:49 34.981205 -119.841032 109 3852ft 157kts
09-Jan-18 18:50 34.974780 -119.820683 109 3259ft 153kts
09-Jan-18 18:51 34.968662 -119.802640 114 3274ft 137kts
09-Jan-18 18:52 34.965565 -119.792608 123 3261ft 134kts
09-Jan-18 18:53 34.959775 -119.783049 121 3241ft 133kts
09-Jan-18 18:54 34.954663 -119.773250 122 3283ft 129kts
09-Jan-18 18:55 34.949763 -119.762775 122 3315ft 127kts
09-Jan-18 18:56 34.944288 -119.752540 130 3277ft 131kts
09-Jan-18 18:57 34.939490 -119.741737 113 3268ft 132kts
09-Jan-18 18:58 34.930960 -119.722301 123 3229ft 132kts
09-Jan-18 18:59 34.923864 -119.710566 119 3171ft 111kts
09-Jan-18 19:00 34.920996 -119.702741 111 3159ft 90kts
09-Jan-18 19:01 34.918525 -119.695249 104 3065ft 87kts
09-Jan-18 19:02 34.916771 -119.688214 113 3114ft 82kts
09-Jan-18 19:03 34.914866 -119.681915 104 3154ft 79kts
09-Jan-18 19:04 34.914231 -119.674332 76 3002ft 89kts
09-Jan-18 19:05 34.918369 -119.668858 16 2720ft 99kts
09-Jan-18 19:06 34.924059 -119.667202 357 2668ft 77kts
09-Jan-18 19:07 34.928849 -119.668692 341 2536ft 73kts
09-Jan-18 19:08 34.933826 -119.671703 325 2447ft 59kts
09-Jan-18 19:09 34.936779 -119.677298 291 2276ft 58kts
09-Jan-18 19:10 34.938973 -119.683195 295 2207ft 40kts
09-Jan-18 19:11 34.940449 -119.686864 306 2207ft 34kts

Navigation Log

Ident Type
Flight plan parsing failed, navigation log unavailable